createdAt,value
2023-03-02T00:01:44.888Z,1.41
2023-03-02T00:04:28.009Z,1.38
2023-03-02T00:07:08.014Z,1.41
2023-03-02T00:09:34.948Z,1.33
2023-03-02T00:12:01.612Z,1.32
2023-03-02T00:14:28.156Z,1.35
2023-03-02T00:16:54.703Z,1.33
2023-03-02T00:19:21.654Z,1.32
2023-03-02T00:21:48.245Z,1.33
2023-03-02T00:24:15.793Z,1.31
2023-03-02T00:26:42.568Z,1.30
2023-03-02T00:29:09.263Z,1.31
2023-03-02T00:31:35.913Z,1.30
2023-03-02T00:34:02.489Z,1.29
2023-03-02T00:36:29.066Z,1.33
2023-03-02T00:38:57.448Z,1.30
2023-03-02T00:41:24.120Z,1.28
2023-03-02T00:43:50.902Z,1.23
2023-03-02T00:46:20.179Z,1.24
2023-03-02T00:48:46.856Z,1.21
2023-03-02T00:51:13.956Z,1.24
2023-03-02T00:53:40.515Z,1.23
2023-03-02T00:56:08.161Z,1.25
2023-03-02T00:58:37.791Z,1.17
2023-03-02T01:01:09.866Z,1.16
2023-03-02T01:03:39.063Z,1.11
2023-03-02T01:06:06.180Z,1.09
2023-03-02T01:08:32.796Z,1.07
2023-03-02T01:11:01.513Z,1.09
2023-03-02T01:13:28.682Z,1.09
2023-03-02T01:16:02.973Z,1.05
2023-03-02T01:18:29.899Z,0.93
2023-03-02T01:21:07.722Z,1.05
2023-03-02T01:23:34.679Z,1.02
2023-03-02T01:26:01.343Z,0.94
2023-03-02T01:28:28.194Z,0.92
2023-03-02T01:30:54.786Z,0.90
2023-03-02T01:33:21.771Z,0.88
2023-03-02T01:35:48.855Z,0.88
2023-03-02T01:38:16.001Z,0.85
2023-03-02T01:40:43.740Z,0.83
2023-03-02T01:43:14.485Z,0.78
2023-03-02T01:45:45.758Z,0.74
2023-03-02T01:48:17.201Z,0.72
2023-03-02T01:50:45.305Z,0.75
2023-03-02T01:53:13.526Z,0.72
2023-03-02T01:55:40.478Z,0.72
2023-03-02T01:58:07.581Z,0.71
2023-03-02T02:00:37.598Z,0.73
2023-03-02T02:03:21.156Z,0.74
2023-03-02T02:06:06.614Z,0.73
2023-03-02T02:08:33.887Z,0.81
2023-03-02T02:11:00.933Z,0.79
2023-03-02T02:13:27.830Z,0.80
2023-03-02T02:15:54.463Z,0.78
2023-03-02T02:18:21.062Z,0.78
2023-03-02T02:20:49.258Z,0.78
2023-03-02T02:23:27.372Z,0.72
2023-03-02T02:25:55.381Z,0.72
2023-03-02T02:28:26.507Z,0.68
2023-03-02T02:31:07.697Z,0.69
2023-03-02T02:33:35.445Z,0.65
2023-03-02T02:36:06.641Z,0.65
2023-03-02T02:38:34.885Z,0.62
2023-03-02T02:41:03.900Z,0.56
2023-03-02T02:43:33.845Z,0.57
2023-03-02T02:46:00.916Z,0.64
2023-03-02T02:48:31.141Z,0.64
2023-03-02T02:51:02.944Z,0.65
2023-03-02T02:53:44.230Z,0.63
2023-03-02T02:56:11.682Z,0.59
2023-03-02T02:58:44.754Z,0.63
2023-03-02T03:01:16.047Z,0.59
2023-03-02T03:03:46.559Z,0.62
2023-03-02T03:06:18.231Z,0.66
2023-03-02T03:08:52.135Z,0.63
2023-03-02T03:11:30.591Z,0.59
2023-03-02T03:14:10.626Z,0.58
2023-03-02T03:16:38.901Z,0.61
2023-03-02T03:19:27.448Z,0.63
2023-03-02T03:21:56.535Z,0.56
2023-03-02T03:24:26.291Z,0.55
2023-03-02T03:26:56.428Z,0.51
2023-03-02T03:29:25.365Z,0.51
2023-03-02T03:31:55.653Z,0.51
2023-03-02T03:34:23.389Z,0.50
2023-03-02T03:36:50.101Z,0.47
2023-03-02T03:39:17.507Z,0.42
2023-03-02T03:41:44.623Z,0.39
2023-03-02T03:44:12.051Z,0.42
2023-03-02T03:46:41.174Z,0.40
2023-03-02T03:49:08.018Z,0.38
2023-03-02T03:51:35.578Z,0.37
2023-03-02T03:54:05.717Z,0.41
2023-03-02T03:56:40.184Z,0.44
2023-03-02T03:59:08.876Z,0.45
2023-03-02T04:01:44.088Z,0.43
2023-03-02T04:04:14.265Z,0.42
2023-03-02T04:06:41.020Z,0.38
2023-03-02T04:09:08.084Z,0.42
2023-03-02T04:11:38.756Z,0.41
2023-03-02T04:14:06.115Z,0.33
2023-03-02T04:16:33.514Z,0.29
2023-03-02T04:19:01.234Z,0.31
2023-03-02T04:21:28.334Z,0.34
2023-03-02T04:23:55.760Z,0.33
2023-03-02T04:26:23.204Z,0.29
2023-03-02T04:28:51.012Z,0.25
2023-03-02T04:31:18.624Z,0.23
2023-03-02T04:33:45.385Z,0.24
2023-03-02T04:36:12.530Z,0.30
2023-03-02T04:38:39.102Z,0.29
2023-03-02T04:41:05.935Z,0.30
2023-03-02T04:43:32.579Z,0.25
2023-03-02T04:45:59.257Z,0.25
2023-03-02T04:48:26.091Z,0.19
2023-03-02T04:50:52.678Z,0.16
2023-03-02T04:53:19.288Z,0.15
2023-03-02T04:55:45.902Z,0.22
2023-03-02T04:58:12.481Z,0.25
2023-03-02T05:00:39.134Z,0.21
2023-03-02T05:03:06.366Z,0.08
2023-03-02T05:05:33.331Z,0.08
2023-03-02T05:08:00.156Z,0.06
2023-03-02T05:10:27.863Z,0.01
2023-03-02T05:13:05.212Z,0.01
2023-03-02T05:15:35.105Z,-0.01
2023-03-02T05:18:02.240Z,0.00
2023-03-02T05:20:30.432Z,-0.01
2023-03-02T05:23:00.688Z,-0.02
2023-03-02T05:25:28.772Z,-0.01
2023-03-02T05:27:55.751Z,-0.02
2023-03-02T05:30:22.687Z,-0.03
2023-03-02T05:32:53.010Z,-0.06
2023-03-02T05:35:21.337Z,-0.02
2023-03-02T05:37:48.018Z,-0.07
2023-03-02T05:40:18.871Z,-0.06
2023-03-02T05:42:45.824Z,-0.06
2023-03-02T05:45:22.948Z,-0.06
2023-03-02T05:47:49.723Z,-0.09
2023-03-02T05:50:16.803Z,-0.04
2023-03-02T05:52:45.428Z,-0.05
2023-03-02T05:55:13.834Z,-0.06
2023-03-02T05:57:40.773Z,-0.06
2023-03-02T06:00:10.221Z,-0.09
2023-03-02T06:02:40.115Z,-0.10
2023-03-02T06:05:10.999Z,-0.12
2023-03-02T06:07:37.570Z,-0.10
2023-03-02T06:10:05.859Z,-0.11
2023-03-02T06:12:32.539Z,-0.04
2023-03-02T06:14:59.534Z,-0.06
2023-03-02T06:17:26.573Z,-0.03
2023-03-02T06:19:53.167Z,-0.03
2023-03-02T06:22:19.751Z,-0.03
2023-03-02T06:24:46.392Z,-0.01
2023-03-02T06:27:13.642Z,-0.01
2023-03-02T06:29:40.293Z,0.04
2023-03-02T06:32:07.281Z,0.05
2023-03-02T06:34:35.475Z,0.04
2023-03-02T06:37:02.424Z,0.08
2023-03-02T06:39:30.190Z,0.13
2023-03-02T06:41:56.774Z,0.19
2023-03-02T06:44:23.387Z,0.19
2023-03-02T06:46:49.965Z,0.23
2023-03-02T06:49:16.554Z,0.25
2023-03-02T06:51:43.207Z,0.32
2023-03-02T06:54:09.850Z,0.35
2023-03-02T06:56:36.435Z,0.37
2023-03-02T06:59:03.079Z,0.36
2023-03-02T07:01:35.773Z,0.39
2023-03-02T07:04:03.231Z,0.43
2023-03-02T07:06:29.854Z,0.46
2023-03-02T07:08:56.405Z,0.50
2023-03-02T07:11:23.034Z,0.59
2023-03-02T07:13:49.815Z,0.59
2023-03-02T07:16:16.423Z,0.69
2023-03-02T07:18:43.140Z,0.73
2023-03-02T07:21:09.719Z,0.76
2023-03-02T07:23:36.309Z,0.87
2023-03-02T07:26:02.909Z,0.84
2023-03-02T07:28:29.510Z,1.04
2023-03-02T07:30:56.126Z,1.15
2023-03-02T07:33:22.770Z,1.20
2023-03-02T07:35:49.368Z,1.06
2023-03-02T07:38:16.008Z,1.52
2023-03-02T07:40:43.216Z,1.58
2023-03-02T07:43:10.160Z,1.84
2023-03-02T07:45:37.605Z,2.10
2023-03-02T07:48:04.241Z,2.21
2023-03-02T07:50:31.267Z,1.93
2023-03-02T07:52:59.891Z,1.81
2023-03-02T07:55:26.593Z,2.30
2023-03-02T07:57:53.246Z,2.21
2023-03-02T08:00:20.620Z,2.25
2023-03-02T08:02:47.208Z,2.27
2023-03-02T08:05:14.129Z,2.19
2023-03-02T08:07:41.027Z,2.64
2023-03-02T08:10:07.820Z,2.42
2023-03-02T08:12:34.384Z,2.39
2023-03-02T08:15:03.092Z,2.32
2023-03-02T08:17:30.211Z,2.45
2023-03-02T08:19:56.752Z,1.79
2023-03-02T08:22:23.546Z,2.08
2023-03-02T08:24:50.184Z,2.36
2023-03-02T08:27:17.750Z,2.50
2023-03-02T08:29:44.304Z,2.45
2023-03-02T08:32:10.996Z,2.37
2023-03-02T08:34:37.654Z,2.45
2023-03-02T08:37:04.309Z,2.67
2023-03-02T08:39:32.189Z,2.75
2023-03-02T08:41:59.061Z,3.23
2023-03-02T08:44:25.722Z,3.78
2023-03-02T08:46:52.283Z,4.19
2023-03-02T08:49:19.535Z,4.58
2023-03-02T08:51:46.772Z,5.05
2023-03-02T08:54:13.457Z,5.62
2023-03-02T08:56:40.397Z,5.87
2023-03-02T08:59:09.886Z,5.72
2023-03-02T09:01:37.976Z,5.55
2023-03-02T09:04:07.253Z,5.91
2023-03-02T09:06:36.739Z,6.42
2023-03-02T09:09:04.270Z,5.64
2023-03-02T09:11:31.097Z,5.91
2023-03-02T09:13:57.909Z,6.20
2023-03-02T09:16:26.096Z,6.44
2023-03-02T09:18:53.920Z,6.51
2023-03-02T09:21:20.880Z,5.66
2023-03-02T09:23:47.485Z,6.54
2023-03-02T09:26:14.152Z,7.27
2023-03-02T09:28:40.799Z,6.87
2023-03-02T09:31:08.526Z,6.91
2023-03-02T09:33:35.529Z,6.45
2023-03-02T09:36:07.176Z,7.10
2023-03-02T09:38:33.788Z,7.90
2023-03-02T09:41:19.985Z,8.72
2023-03-02T09:44:01.359Z,8.95
2023-03-02T09:46:39.692Z,7.57
2023-03-02T09:49:37.136Z,6.72
2023-03-02T09:52:13.998Z,7.88
2023-03-02T09:54:40.903Z,7.87
2023-03-02T09:57:27.193Z,8.60
2023-03-02T10:00:18.053Z,9.70
2023-03-02T10:02:51.721Z,9.62
2023-03-02T10:05:31.868Z,10.12
2023-03-02T10:07:59.497Z,8.19
2023-03-02T10:11:03.248Z,8.53
2023-03-02T10:13:34.763Z,9.40
2023-03-02T10:16:12.425Z,8.74
2023-03-02T10:18:47.181Z,8.60
2023-03-02T10:21:49.649Z,9.05
2023-03-02T10:25:02.950Z,8.70
2023-03-02T10:27:42.449Z,9.46
2023-03-02T10:30:31.127Z,10.34
2023-03-02T10:33:01.258Z,9.90
2023-03-02T10:35:29.107Z,9.82
2023-03-02T10:38:00.342Z,10.39
2023-03-02T10:40:46.086Z,9.24
2023-03-02T10:43:34.188Z,9.21
2023-03-02T10:46:03.123Z,9.99
2023-03-02T10:48:29.736Z,9.70
2023-03-02T10:50:58.569Z,10.66
2023-03-02T10:53:25.414Z,9.70
2023-03-02T10:55:53.309Z,10.06
2023-03-02T10:58:31.975Z,11.25
2023-03-02T11:01:07.379Z,11.32
2023-03-02T11:03:34.285Z,12.89
2023-03-02T11:06:17.467Z,12.40
2023-03-02T11:08:44.130Z,11.47
2023-03-02T11:11:37.734Z,11.64
2023-03-02T11:14:16.291Z,11.75
2023-03-02T11:16:43.621Z,10.93
2023-03-02T11:19:16.502Z,12.59
2023-03-02T11:21:56.476Z,12.82
2023-03-02T11:25:01.697Z,14.61
2023-03-02T11:27:31.232Z,15.57
2023-03-02T11:30:12.057Z,16.43
2023-03-02T11:32:50.004Z,15.63
2023-03-02T11:35:22.846Z,15.67
2023-03-02T11:37:55.253Z,14.79
2023-03-02T11:40:32.184Z,14.64
2023-03-02T11:43:00.459Z,12.63
2023-03-02T11:45:31.673Z,12.39
2023-03-02T11:48:04.176Z,11.33
2023-03-02T11:50:33.150Z,13.24
2023-03-02T11:53:01.991Z,13.63
2023-03-02T11:55:34.153Z,13.22
2023-03-02T11:58:03.423Z,13.07
2023-03-02T12:00:42.205Z,12.12
2023-03-02T12:03:14.725Z,12.59
2023-03-02T12:05:45.887Z,13.23
2023-03-02T12:08:15.542Z,13.18
2023-03-02T12:10:44.332Z,13.24
2023-03-02T12:13:17.861Z,12.30
2023-03-02T12:15:50.864Z,13.72
2023-03-02T12:18:23.514Z,13.77
2023-03-02T12:21:16.051Z,14.39
2023-03-02T12:23:45.525Z,14.44
2023-03-02T12:26:21.248Z,13.98
2023-03-02T12:29:10.888Z,13.42
2023-03-02T12:31:46.251Z,13.33
2023-03-02T12:34:33.797Z,14.09
2023-03-02T12:37:11.881Z,13.95
2023-03-02T12:40:03.448Z,14.12
2023-03-02T12:43:07.258Z,14.97
2023-03-02T12:45:46.374Z,14.97
2023-03-02T12:48:25.281Z,14.94
2023-03-02T12:50:52.851Z,14.36
2023-03-02T12:53:20.010Z,14.27
2023-03-02T12:55:46.950Z,14.29
2023-03-02T12:58:33.649Z,13.87
2023-03-02T13:01:02.296Z,13.63
2023-03-02T13:03:30.976Z,12.66
2023-03-02T13:06:03.468Z,12.81
2023-03-02T13:08:31.589Z,13.43
2023-03-02T13:11:00.866Z,13.59
2023-03-02T13:13:41.595Z,13.58
2023-03-02T13:16:28.809Z,13.87
2023-03-02T13:18:58.270Z,12.92
2023-03-02T13:21:32.767Z,14.02
2023-03-02T13:23:59.641Z,13.65
2023-03-02T13:26:37.127Z,15.32
2023-03-02T13:29:14.716Z,16.05
2023-03-02T13:31:41.387Z,13.86
2023-03-02T13:34:20.786Z,12.79
2023-03-02T13:36:47.364Z,13.32
2023-03-02T13:39:22.527Z,12.11
2023-03-02T13:41:54.425Z,12.69
2023-03-02T13:44:26.282Z,13.71
2023-03-02T13:46:52.909Z,12.10
2023-03-02T13:49:30.506Z,11.98
2023-03-02T13:52:02.303Z,10.55
2023-03-02T13:54:31.181Z,10.68
2023-03-02T13:56:59.262Z,10.06
2023-03-02T13:59:26.054Z,9.85
2023-03-02T14:01:52.678Z,9.19
2023-03-02T14:04:24.033Z,9.29
2023-03-02T14:06:52.129Z,9.35
2023-03-02T14:09:19.232Z,9.37
2023-03-02T14:11:48.276Z,8.66
2023-03-02T14:14:17.894Z,8.86
2023-03-02T14:16:44.565Z,9.33
2023-03-02T14:19:13.933Z,9.13
2023-03-02T14:21:41.202Z,7.94
2023-03-02T14:24:07.794Z,8.91
2023-03-02T14:26:45.219Z,8.66
2023-03-02T14:29:31.607Z,7.46
2023-03-02T14:32:00.706Z,7.76
2023-03-02T14:34:27.682Z,7.76
2023-03-02T14:36:58.625Z,7.56
2023-03-02T14:39:36.441Z,7.43
2023-03-02T14:42:04.175Z,8.13
2023-03-02T14:44:30.794Z,8.35
2023-03-02T14:46:58.284Z,7.80
2023-03-02T14:49:25.416Z,8.21
2023-03-02T14:51:59.336Z,7.68
2023-03-02T14:54:26.447Z,7.90
2023-03-02T14:56:53.134Z,8.08
2023-03-02T14:59:19.733Z,8.08
2023-03-02T15:01:46.487Z,8.05
2023-03-02T15:04:13.216Z,8.06
2023-03-02T15:06:41.058Z,7.43
2023-03-02T15:09:08.533Z,7.59
2023-03-02T15:11:35.516Z,7.10
2023-03-02T15:14:02.408Z,7.36
2023-03-02T15:16:29.062Z,7.50
2023-03-02T15:18:57.751Z,7.62
2023-03-02T15:21:25.216Z,7.56
2023-03-02T15:23:52.006Z,7.51
2023-03-02T15:26:18.659Z,7.55
2023-03-02T15:28:48.086Z,7.44
2023-03-02T15:31:16.352Z,7.39
2023-03-02T15:33:45.246Z,7.29
2023-03-02T15:36:12.781Z,7.11
2023-03-02T15:38:39.729Z,6.89
2023-03-02T15:41:13.163Z,6.28
2023-03-02T15:43:40.069Z,6.57
2023-03-02T15:46:06.731Z,6.31
2023-03-02T15:48:33.278Z,6.54
2023-03-02T15:51:04.837Z,6.54
2023-03-02T15:53:34.658Z,6.51
2023-03-02T15:56:10.879Z,6.55
2023-03-02T15:58:37.469Z,6.40
2023-03-02T16:01:08.479Z,6.29
2023-03-02T16:03:35.189Z,6.28
2023-03-02T16:06:02.023Z,6.30
2023-03-02T16:08:28.627Z,6.20
2023-03-02T16:10:59.744Z,6.17
2023-03-02T16:13:26.957Z,6.11
2023-03-02T16:15:53.857Z,6.07
2023-03-02T16:18:20.430Z,5.66
2023-03-02T16:20:47.023Z,5.22
2023-03-02T16:23:13.733Z,4.35
2023-03-02T16:25:43.526Z,4.29
2023-03-02T16:28:11.661Z,4.48
2023-03-02T16:30:39.525Z,4.74
2023-03-02T16:33:07.967Z,4.58
2023-03-02T16:35:35.275Z,4.63
2023-03-02T16:38:02.162Z,3.84
2023-03-02T16:40:29.387Z,3.85
2023-03-02T16:42:55.949Z,4.22
2023-03-02T16:45:22.687Z,3.95
2023-03-02T16:47:49.827Z,3.92
2023-03-02T16:50:17.100Z,3.40
2023-03-02T16:52:44.271Z,3.87
2023-03-02T16:55:17.292Z,4.28
2023-03-02T16:57:43.862Z,4.47
2023-03-02T17:00:13.363Z,4.52
2023-03-02T17:02:40.051Z,4.50
2023-03-02T17:05:06.854Z,4.57
2023-03-02T17:07:33.415Z,4.17
2023-03-02T17:09:59.976Z,4.33
2023-03-02T17:12:26.573Z,4.42
2023-03-02T17:14:53.141Z,4.57
2023-03-02T17:17:19.793Z,4.65
2023-03-02T17:19:46.336Z,4.44
2023-03-02T17:22:12.996Z,4.12
2023-03-02T17:24:39.655Z,3.74
2023-03-02T17:27:15.901Z,3.36
2023-03-02T17:29:49.275Z,3.32
2023-03-02T17:32:15.925Z,2.79
2023-03-02T17:34:43.385Z,2.96
2023-03-02T17:37:09.977Z,2.38
2023-03-02T17:39:36.627Z,2.38
2023-03-02T17:42:03.290Z,2.91
2023-03-02T17:44:29.858Z,2.32
2023-03-02T17:46:56.536Z,2.71
2023-03-02T17:49:23.094Z,1.96
2023-03-02T17:51:49.828Z,2.69
2023-03-02T17:54:16.389Z,3.30
2023-03-02T17:56:42.994Z,3.10
2023-03-02T17:59:10.456Z,2.94
2023-03-02T18:01:37.032Z,3.02
2023-03-02T18:04:03.761Z,2.66
2023-03-02T18:06:30.345Z,2.60
2023-03-02T18:08:57.010Z,2.85
2023-03-02T18:11:24.756Z,3.44
2023-03-02T18:13:54.883Z,3.74
2023-03-02T18:16:23.093Z,3.52
2023-03-02T18:18:53.479Z,3.84
2023-03-02T18:21:21.121Z,3.94
2023-03-02T18:23:47.754Z,4.04
2023-03-02T18:26:14.977Z,3.99
2023-03-02T18:28:41.691Z,4.09
2023-03-02T18:31:08.740Z,4.12
2023-03-02T18:33:37.450Z,4.15
2023-03-02T18:36:05.599Z,4.14
2023-03-02T18:38:33.650Z,4.23
2023-03-02T18:41:03.023Z,3.69
2023-03-02T18:43:34.783Z,3.97
2023-03-02T18:46:05.355Z,3.85
2023-03-02T18:48:32.571Z,3.84
2023-03-02T18:50:59.402Z,3.25
2023-03-02T18:53:27.023Z,3.30
2023-03-02T18:55:56.698Z,2.27
2023-03-02T18:58:25.367Z,2.46
2023-03-02T19:00:53.710Z,2.44
2023-03-02T19:03:20.988Z,2.94
2023-03-02T19:05:47.587Z,3.12
2023-03-02T19:08:14.232Z,3.03
2023-03-02T19:10:42.417Z,3.30
2023-03-02T19:13:11.629Z,3.62
2023-03-02T19:15:41.537Z,3.77
2023-03-02T19:18:08.402Z,3.74
2023-03-02T19:20:35.296Z,3.84
2023-03-02T19:23:01.955Z,3.77
2023-03-02T19:25:28.685Z,3.37
2023-03-02T19:27:55.261Z,3.68
2023-03-02T19:30:24.645Z,3.79
2023-03-02T19:32:54.037Z,3.88
2023-03-02T19:35:22.814Z,3.86
2023-03-02T19:37:49.850Z,3.85
2023-03-02T19:40:19.220Z,3.78
2023-03-02T19:42:47.487Z,3.65
2023-03-02T19:45:23.576Z,3.73
2023-03-02T19:47:50.125Z,3.75
2023-03-02T19:50:19.005Z,3.77
2023-03-02T19:52:45.615Z,3.74
2023-03-02T19:55:14.100Z,3.76
2023-03-02T19:57:40.898Z,3.65
2023-03-02T20:00:13.301Z,3.63
2023-03-02T20:02:40.847Z,3.81
2023-03-02T20:05:11.073Z,3.14
2023-03-02T20:10:35.950Z,3.25
2023-03-02T20:13:03.554Z,3.52
2023-03-02T20:15:32.049Z,3.53
2023-03-02T20:17:59.528Z,3.69
2023-03-02T20:20:27.169Z,3.55
2023-03-02T20:22:54.789Z,3.13
2023-03-02T20:25:21.770Z,2.33
2023-03-02T20:27:49.385Z,2.82
2023-03-02T20:30:39.411Z,3.11
2023-03-02T20:33:07.245Z,3.34
2023-03-02T20:35:35.106Z,3.39
2023-03-02T20:38:05.497Z,2.50
2023-03-02T20:40:32.483Z,1.96
2023-03-02T20:42:59.168Z,2.65
2023-03-02T20:45:25.787Z,2.47
2023-03-02T20:51:37.181Z,2.48
2023-03-02T20:54:04.358Z,2.15
2023-03-02T20:56:30.999Z,1.98
2023-03-02T20:58:58.012Z,1.42
2023-03-02T21:01:24.979Z,1.56
2023-03-02T21:03:51.721Z,1.61
2023-03-02T21:06:18.978Z,1.38
2023-03-02T21:08:46.124Z,1.65
2023-03-02T21:11:15.813Z,2.25
2023-03-02T21:13:45.889Z,2.44
2023-03-02T21:16:17.128Z,1.90
2023-03-02T21:18:57.992Z,2.44
2023-03-02T21:21:40.392Z,2.32
2023-03-02T21:24:09.208Z,2.66
2023-03-02T21:26:36.677Z,2.77
2023-03-02T21:29:05.290Z,2.96
2023-03-02T21:31:31.991Z,3.08
2023-03-02T21:34:00.203Z,2.39
2023-03-02T21:36:27.139Z,2.81
2023-03-02T21:38:53.874Z,3.05
2023-03-02T21:41:20.499Z,2.81
2023-03-02T21:43:47.829Z,3.01
2023-03-02T21:46:16.750Z,3.16
2023-03-02T21:48:43.898Z,2.24
2023-03-02T21:51:11.866Z,2.81
2023-03-02T21:53:38.423Z,3.02
2023-03-02T21:56:05.681Z,3.19
2023-03-02T21:58:32.373Z,3.26
2023-03-02T22:00:59.094Z,2.84
2023-03-02T22:03:25.864Z,2.39
2023-03-02T22:05:52.464Z,2.63
2023-03-02T22:08:20.469Z,2.09
2023-03-02T22:10:51.136Z,2.53
2023-03-02T22:13:26.818Z,2.64
2023-03-02T22:16:15.511Z,2.95
2023-03-02T22:18:44.661Z,3.03
2023-03-02T22:21:28.656Z,2.97
2023-03-02T22:24:09.885Z,2.97
2023-03-02T22:26:40.719Z,2.87
2023-03-02T22:29:21.469Z,2.13
2023-03-02T22:31:49.582Z,2.38
2023-03-02T22:34:24.261Z,2.04
2023-03-02T22:36:50.918Z,1.86
2023-03-02T22:39:29.400Z,2.36
2023-03-02T22:42:08.731Z,2.53
2023-03-02T22:44:37.329Z,2.41
2023-03-02T22:47:20.346Z,2.20
2023-03-02T22:49:56.132Z,2.19
2023-03-02T22:52:26.071Z,2.45
2023-03-02T22:54:55.183Z,2.49
2023-03-02T22:57:33.486Z,2.06
2023-03-02T23:00:32.663Z,2.09
2023-03-02T23:03:01.364Z,2.24
2023-03-02T23:05:33.930Z,2.50
2023-03-02T23:08:19.722Z,1.78
2023-03-02T23:10:49.283Z,1.69
2023-03-02T23:13:20.119Z,1.12
2023-03-02T23:15:48.985Z,1.84
2023-03-02T23:18:29.053Z,1.72
2023-03-02T23:20:58.409Z,1.91
2023-03-02T23:23:28.895Z,1.89
2023-03-02T23:25:59.079Z,0.97
2023-03-02T23:28:26.154Z,0.66
2023-03-02T23:30:54.674Z,1.59
2023-03-02T23:33:24.040Z,1.87
2023-03-02T23:35:53.753Z,1.56
2023-03-02T23:38:22.978Z,1.64
2023-03-02T23:40:52.323Z,1.71
2023-03-02T23:43:21.893Z,1.52
2023-03-02T23:45:51.549Z,2.02
2023-03-02T23:48:20.980Z,2.22
2023-03-02T23:50:52.166Z,1.79
2023-03-02T23:53:22.596Z,1.68
2023-03-02T23:55:53.382Z,1.49
2023-03-02T23:58:25.152Z,1.58
